sensor_id;sensor_type;location;lat;lon;timestamp;pressure;altitude;pressure_sealevel;temperature;humidity
49723;BME280;43484;43.608;1.458;2023-11-19T14:03:15;100464.28;;;16.28;100.00
49723;BME280;43484;43.608;1.458;2023-11-19T14:05:42;100453.22;;;16.37;100.00
49723;BME280;43484;43.608;1.458;2023-11-19T14:08:09;100454.13;;;16.41;100.00
49723;BME280;43484;43.608;1.458;2023-11-19T14:10:51;100454.88;;;16.33;100.00
49723;BME280;43484;43.608;1.458;2023-11-19T14:13:17;100452.44;;;16.43;100.00
49723;BME280;43484;43.608;1.458;2023-11-19T14:15:44;100457.63;;;16.44;100.00
49723;BME280;43484;43.608;1.458;2023-11-19T14:18:15;100451.44;;;16.36;100.00
49723;BME280;43484;43.608;1.458;2023-11-19T14:20:41;100456.13;;;16.57;100.00
49723;BME280;43484;43.608;1.458;2023-11-19T14:23:09;100453.56;;;16.58;100.00
49723;BME280;43484;43.608;1.458;2023-11-19T14:25:36;100450.22;;;16.65;100.00
49723;BME280;43484;43.608;1.458;2023-11-19T14:28:03;100456.28;;;16.67;100.00
49723;BME280;43484;43.608;1.458;2023-11-19T14:30:32;100450.22;;;16.64;100.00
49723;BME280;43484;43.608;1.458;2023-11-19T14:32:59;100455.38;;;16.62;100.00
49723;BME280;43484;43.608;1.458;2023-11-19T14:35:25;100447.59;;;16.62;100.00
49723;BME280;43484;43.608;1.458;2023-11-19T14:37:52;100448.50;;;16.64;100.00
49723;BME280;43484;43.608;1.458;2023-11-19T14:40:19;100447.59;;;16.62;100.00
49723;BME280;43484;43.608;1.458;2023-11-19T14:42:46;100441.53;;;16.62;100.00
49723;BME280;43484;43.608;1.458;2023-11-19T14:45:12;100448.34;;;16.55;100.00
49723;BME280;43484;43.608;1.458;2023-11-19T14:47:39;100450.69;;;16.42;100.00
49723;BME280;43484;43.608;1.458;2023-11-19T14:50:06;100452.63;;;16.55;100.00
49723;BME280;43484;43.608;1.458;2023-11-19T14:52:35;100449.47;;;16.71;100.00
49723;BME280;43484;43.608;1.458;2023-11-19T14:55:03;100447.66;;;16.67;100.00
49723;BME280;43484;43.608;1.458;2023-11-19T14:57:30;100445.97;;;16.69;100.00
49723;BME280;43484;43.608;1.458;2023-11-19T14:59:57;100445.13;;;16.71;100.00
49723;BME280;43484;43.608;1.458;2023-11-19T15:02:23;100442.53;;;16.70;100.00
49723;BME280;43484;43.608;1.458;2023-11-19T15:04:50;100450.47;;;16.82;100.00
49723;BME280;43484;43.608;1.458;2023-11-19T15:07:17;100454.81;;;16.83;100.00
49723;BME280;43484;43.608;1.458;2023-11-19T15:09:43;100441.91;;;16.86;100.00
49723;BME280;43484;43.608;1.458;2023-11-19T15:12:10;100445.44;;;16.91;100.00
49723;BME280;43484;43.608;1.458;2023-11-19T15:14:37;100447.06;;;16.83;100.00
49723;BME280;43484;43.608;1.458;2023-11-19T15:17:04;100447.81;;;16.76;100.00
49723;BME280;43484;43.608;1.458;2023-11-19T15:19:32;100441.69;;;16.69;100.00
49723;BME280;43484;43.608;1.458;2023-11-19T15:21:58;100451.13;;;16.67;100.00
49723;BME280;43484;43.608;1.458;2023-11-19T15:24:25;100446.72;;;16.62;100.00
49723;BME280;43484;43.608;1.458;2023-11-19T15:26:52;100452.06;;;16.72;100.00
49723;BME280;43484;43.608;1.458;2023-11-19T15:29:18;100457.28;;;16.77;100.00
49723;BME280;43484;43.608;1.458;2023-11-19T15:31:47;100456.47;;;16.78;100.00
49723;BME280;43484;43.608;1.458;2023-11-19T15:34:14;100455.69;;;16.85;100.00
49723;BME280;43484;43.608;1.458;2023-11-19T15:36:41;100452.25;;;16.86;100.00
49723;BME280;43484;43.608;1.458;2023-11-19T15:39:08;100454.72;;;16.77;100.00
49723;BME280;43484;43.608;1.458;2023-11-19T15:41:35;100443.56;;;16.81;100.00
49723;BME280;43484;43.608;1.458;2023-11-19T15:44:02;100450.50;;;16.85;100.00
49723;BME280;43484;43.608;1.458;2023-11-19T15:46:30;100448.66;;;16.76;100.00
49723;BME280;43484;43.608;1.458;2023-11-19T15:48:57;100449.53;;;16.77;100.00
49723;BME280;43484;43.608;1.458;2023-11-19T15:51:23;100446.84;;;16.69;100.00
49723;BME280;43484;43.608;1.458;2023-11-19T15:53:50;100452.78;;;16.62;100.00
49723;BME280;43484;43.608;1.458;2023-11-19T15:56:16;100445.94;;;16.66;100.00
49723;BME280;43484;43.608;1.458;2023-11-19T15:58:43;100454.53;;;16.65;100.00
49723;BME280;43484;43.608;1.458;2023-11-19T16:01:10;100443.34;;;16.66;100.00
49723;BME280;43484;43.608;1.458;2023-11-19T16:03:37;100451.81;;;16.56;100.00
49723;BME280;43484;43.608;1.458;2023-11-19T16:06:07;100462.00;;;16.47;100.00
49723;BME280;43484;43.608;1.458;2023-11-19T16:08:36;100461.00;;;16.39;100.00
49723;BME280;43484;43.608;1.458;2023-11-19T16:11:04;100464.53;;;16.44;100.00
49723;BME280;43484;43.608;1.458;2023-11-19T16:13:31;100462.00;;;16.47;100.00
49723;BME280;43484;43.608;1.458;2023-11-19T16:15:58;100462.72;;;16.40;100.00
49723;BME280;43484;43.608;1.458;2023-11-19T16:18:24;100461.75;;;16.33;100.00
49723;BME280;43484;43.608;1.458;2023-11-19T16:20:51;100456.50;;;16.27;100.00
49723;BME280;43484;43.608;1.458;2023-11-19T16:23:18;100471.09;;;16.25;100.00
49723;BME280;43484;43.608;1.458;2023-11-19T16:25:46;100458.00;;;16.14;100.00
49723;BME280;43484;43.608;1.458;2023-11-19T16:28:13;100461.25;;;16.04;100.00
49723;BME280;43484;43.608;1.458;2023-11-19T16:30:40;100458.63;;;16.01;100.00
49723;BME280;43484;43.608;1.458;2023-11-19T16:33:07;100456.53;;;15.81;100.00
49723;BME280;43484;43.608;1.458;2023-11-19T16:35:46;100453.63;;;15.64;100.00
49723;BME280;43484;43.608;1.458;2023-11-19T16:38:13;100445.72;;;15.55;100.00
49723;BME280;43484;43.608;1.458;2023-11-19T16:40:39;100441.19;;;15.42;100.00
49723;BME280;43484;43.608;1.458;2023-11-19T16:43:06;100433.06;;;15.27;100.00
49723;BME280;43484;43.608;1.458;2023-11-19T16:45:33;100422.75;;;15.27;100.00
49723;BME280;43484;43.608;1.458;2023-11-19T16:48:00;100413.97;;;15.19;100.00
49723;BME280;43484;43.608;1.458;2023-11-19T16:50:27;100402.66;;;15.13;100.00
49723;BME280;43484;43.608;1.458;2023-11-19T16:52:55;100391.38;;;15.07;100.00
49723;BME280;43484;43.608;1.458;2023-11-19T16:55:21;100391.31;;;15.04;100.00
49723;BME280;43484;43.608;1.458;2023-11-19T16:57:48;100385.41;;;15.08;100.00
49723;BME280;43484;43.608;1.458;2023-11-19T17:00:15;100392.19;;;15.03;100.00
49723;BME280;43484;43.608;1.458;2023-11-19T17:02:42;100403.16;;;14.93;100.00
49723;BME280;43484;43.608;1.458;2023-11-19T17:05:11;100381.47;;;14.87;100.00
49723;BME280;43484;43.608;1.458;2023-11-19T17:07:38;100375.53;;;14.89;100.00
49723;BME280;43484;43.608;1.458;2023-11-19T17:10:06;100372.88;;;14.85;100.00
49723;BME280;43484;43.608;1.458;2023-11-19T17:12:33;100376.13;;;14.76;100.00
49723;BME280;43484;43.608;1.458;2023-11-19T17:15:00;100372.66;;;14.76;100.00
49723;BME280;43484;43.608;1.458;2023-11-19T17:17:33;100371.59;;;14.66;100.00
49723;BME280;43484;43.608;1.458;2023-11-19T17:20:06;100374.19;;;14.66;100.00
49723;BME280;43484;43.608;1.458;2023-11-19T17:22:34;100383.69;;;14.69;100.00
49723;BME280;43484;43.608;1.458;2023-11-19T17:25:02;100387.84;;;14.62;100.00
49723;BME280;43484;43.608;1.458;2023-11-19T17:27:30;100389.38;;;14.54;100.00
49723;BME280;43484;43.608;1.458;2023-11-19T17:29:57;100385.19;;;14.59;100.00
49723;BME280;43484;43.608;1.458;2023-11-19T17:32:24;100388.47;;;14.52;100.00
49723;BME280;43484;43.608;1.458;2023-11-19T17:34:52;100392.63;;;14.46;100.00
49723;BME280;43484;43.608;1.458;2023-11-19T17:37:18;100376.16;;;14.39;100.00
49723;BME280;43484;43.608;1.458;2023-11-19T17:39:46;100369.13;;;14.34;100.00
49723;BME280;43484;43.608;1.458;2023-11-19T17:42:13;100357.81;;;14.27;100.00
49723;BME280;43484;43.608;1.458;2023-11-19T17:44:39;100349.91;;;14.20;100.00
49723;BME280;43484;43.608;1.458;2023-11-19T17:47:06;100351.50;;;14.15;100.00
49723;BME280;43484;43.608;1.458;2023-11-19T17:49:33;100341.06;;;14.10;100.00
49723;BME280;43484;43.608;1.458;2023-11-19T17:52:01;100321.22;;;14.05;100.00
49723;BME280;43484;43.608;1.458;2023-11-19T17:54:27;100308.16;;;13.99;100.00
49723;BME280;43484;43.608;1.458;2023-11-19T17:56:55;100290.97;;;13.98;100.00
49723;BME280;43484;43.608;1.458;2023-11-19T17:59:21;100275.34;;;13.90;100.00
49723;BME280;43484;43.608;1.458;2023-11-19T18:01:51;100267.66;;;13.92;100.00
49723;BME280;43484;43.608;1.458;2023-11-19T18:04:25;100269.34;;;13.90;100.00
49723;BME280;43484;43.608;1.458;2023-11-19T18:06:53;100253.88;;;13.90;100.00
49723;BME280;43484;43.608;1.458;2023-11-19T18:09:19;100250.47;;;13.91;100.00
49723;BME280;43484;43.608;1.458;2023-11-19T18:11:47;100251.31;;;13.90;100.00
49723;BME280;43484;43.608;1.458;2023-11-19T18:14:14;100249.53;;;13.87;100.00
49723;BME280;43484;43.608;1.458;2023-11-19T18:16:41;100240.09;;;13.88;100.00
49723;BME280;43484;43.608;1.458;2023-11-19T18:19:10;100232.44;;;13.91;100.00
49723;BME280;43484;43.608;1.458;2023-11-19T18:21:37;100235.75;;;13.86;100.00
49723;BME280;43484;43.608;1.458;2023-11-19T18:24:06;100232.22;;;13.81;100.00
49723;BME280;43484;43.608;1.458;2023-11-19T18:26:33;100208.91;;;13.75;100.00
49723;BME280;43484;43.608;1.458;2023-11-19T18:29:02;100208.88;;;13.74;100.00
49723;BME280;43484;43.608;1.458;2023-11-19T18:31:30;100202.84;;;13.73;100.00
49723;BME280;43484;43.608;1.458;2023-11-19T18:33:57;100195.94;;;13.71;100.00
49723;BME280;43484;43.608;1.458;2023-11-19T18:36:24;100184.66;;;13.64;100.00
49723;BME280;43484;43.608;1.458;2023-11-19T18:38:51;100174.25;;;13.61;100.00
49723;BME280;43484;43.608;1.458;2023-11-19T18:41:19;100173.34;;;13.58;100.00
49723;BME280;43484;43.608;1.458;2023-11-19T18:43:46;100165.56;;;13.56;100.00
49723;BME280;43484;43.608;1.458;2023-11-19T18:46:13;100162.09;;;13.54;100.00
49723;BME280;43484;43.608;1.458;2023-11-19T18:48:40;100156.97;;;13.54;100.00
49723;BME280;43484;43.608;1.458;2023-11-19T18:51:06;100156.88;;;13.51;100.00
49723;BME280;43484;43.608;1.458;2023-11-19T18:53:33;100152.63;;;13.53;100.00
49723;BME280;43484;43.608;1.458;2023-11-19T18:56:00;100148.34;;;13.54;100.00
49723;BME280;43484;43.608;1.458;2023-11-19T18:58:27;100147.53;;;13.56;100.00
49723;BME280;43484;43.608;1.458;2023-11-19T19:00:53;100150.97;;;13.55;100.00
49723;BME280;43484;43.608;1.458;2023-11-19T19:03:21;100149.22;;;13.53;100.00
49723;BME280;43484;43.608;1.458;2023-11-19T19:05:50;100139.69;;;13.50;100.00
49723;BME280;43484;43.608;1.458;2023-11-19T19:08:17;100137.38;;;13.61;100.00
49723;BME280;43484;43.608;1.458;2023-11-19T19:10:44;100149.38;;;13.60;100.00
49723;BME280;43484;43.608;1.458;2023-11-19T19:13:11;100152.63;;;13.53;100.00
49723;BME280;43484;43.608;1.458;2023-11-19T19:15:38;100155.13;;;13.50;100.00
49723;BME280;43484;43.608;1.458;2023-11-19T19:18:05;100150.09;;;13.55;100.00
49723;BME280;43484;43.608;1.458;2023-11-19T19:20:33;100147.41;;;13.50;100.00
49723;BME280;43484;43.608;1.458;2023-11-19T19:23:00;100141.28;;;13.45;100.00
49723;BME280;43484;43.608;1.458;2023-11-19T19:25:27;100145.56;;;13.45;100.00
49723;BME280;43484;43.608;1.458;2023-11-19T19:27:57;100137.75;;;13.40;100.00
49723;BME280;43484;43.608;1.458;2023-11-19T19:30:43;100131.56;;;13.32;100.00
49723;BME280;43484;43.608;1.458;2023-11-19T19:33:11;100128.94;;;13.29;100.00
49723;BME280;43484;43.608;1.458;2023-11-19T19:35:41;100122.84;;;13.26;100.00
49723;BME280;43484;43.608;1.458;2023-11-19T19:38:07;100115.09;;;13.24;100.00
49723;BME280;43484;43.608;1.458;2023-11-19T19:40:36;100119.16;;;13.16;100.00
49723;BME280;43484;43.608;1.458;2023-11-19T19:43:02;100113.16;;;13.16;100.00
49723;BME280;43484;43.608;1.458;2023-11-19T19:45:30;100101.91;;;13.11;100.00
49723;BME280;43484;43.608;1.458;2023-11-19T19:47:58;100093.34;;;13.12;100.00
49723;BME280;43484;43.608;1.458;2023-11-19T19:50:25;100102.75;;;13.11;100.00
49723;BME280;43484;43.608;1.458;2023-11-19T19:52:52;100100.94;;;13.06;100.00
49723;BME280;43484;43.608;1.458;2023-11-19T19:55:20;100092.28;;;13.02;100.00
49723;BME280;43484;43.608;1.458;2023-11-19T19:57:50;100091.41;;;13.03;100.00
49723;BME280;43484;43.608;1.458;2023-11-19T20:00:17;100089.75;;;13.05;100.00
49723;BME280;43484;43.608;1.458;2023-11-19T20:02:47;100088.09;;;13.07;100.00
49723;BME280;43484;43.608;1.458;2023-11-19T20:05:14;100093.28;;;13.09;100.00
49723;BME280;43484;43.608;1.458;2023-11-19T20:07:42;100088.16;;;13.10;100.00
49723;BME280;43484;43.608;1.458;2023-11-19T20:10:10;100091.41;;;13.03;100.00
49723;BME280;43484;43.608;1.458;2023-11-19T20:12:37;100087.06;;;13.01;100.00
49723;BME280;43484;43.608;1.458;2023-11-19T20:15:06;100086.13;;;12.97;100.00
49723;BME280;43484;43.608;1.458;2023-11-19T20:17:33;100085.19;;;12.95;100.00
49723;BME280;43484;43.608;1.458;2023-11-19T20:20:01;100081.69;;;12.92;100.00
49723;BME280;43484;43.608;1.458;2023-11-19T20:22:29;100077.34;;;12.89;100.00
49723;BME280;43484;43.608;1.458;2023-11-19T20:24:56;100076.41;;;12.86;100.00
49723;BME280;43484;43.608;1.458;2023-11-19T20:27:24;100078.88;;;12.83;100.00
49723;BME280;43484;43.608;1.458;2023-11-19T20:29:51;100079.81;;;12.86;100.00
49723;BME280;43484;43.608;1.458;2023-11-19T20:32:19;100074.69;;;12.86;100.00
49723;BME280;43484;43.608;1.458;2023-11-19T20:34:46;100082.41;;;12.86;100.00
49723;BME280;43484;43.608;1.458;2023-11-19T20:37:12;100080.56;;;12.81;100.00
49723;BME280;43484;43.608;1.458;2023-11-19T20:39:39;100078.81;;;12.80;100.00
49723;BME280;43484;43.608;1.458;2023-11-19T20:42:06;100073.63;;;12.78;100.00
49723;BME280;43484;43.608;1.458;2023-11-19T20:44:32;100068.44;;;12.75;100.00
49723;BME280;43484;43.608;1.458;2023-11-19T20:46:59;100071.78;;;12.73;100.00
49723;BME280;43484;43.608;1.458;2023-11-19T20:49:31;100067.44;;;12.70;100.00
49723;BME280;43484;43.608;1.458;2023-11-19T20:51:57;100068.09;;;12.61;100.00
49723;BME280;43484;43.608;1.458;2023-11-19T20:54:24;100069.75;;;12.59;100.00
49723;BME280;43484;43.608;1.458;2023-11-19T20:56:54;100075.66;;;12.55;100.00
49723;BME280;43484;43.608;1.458;2023-11-19T20:59:21;100065.34;;;12.54;100.00
49723;BME280;43484;43.608;1.458;2023-11-19T21:01:47;100063.63;;;12.54;100.00
49723;BME280;43484;43.608;1.458;2023-11-19T21:04:14;100061.81;;;12.50;100.00
49723;BME280;43484;43.608;1.458;2023-11-19T21:06:41;100055.69;;;12.45;100.00
49723;BME280;43484;43.608;1.458;2023-11-19T21:09:11;100050.56;;;12.45;100.00
49723;BME280;43484;43.608;1.458;2023-11-19T21:11:37;100051.41;;;12.46;100.00
49723;BME280;43484;43.608;1.458;2023-11-19T21:14:04;100059.22;;;12.49;100.00
49723;BME280;43484;43.608;1.458;2023-11-19T21:16:31;100060.03;;;12.48;100.00
49723;BME280;43484;43.608;1.458;2023-11-19T21:18:57;100062.69;;;12.51;100.00
49723;BME280;43484;43.608;1.458;2023-11-19T21:21:24;100053.19;;;12.48;100.00
49723;BME280;43484;43.608;1.458;2023-11-19T21:23:52;100054.09;;;12.49;100.00
49723;BME280;43484;43.608;1.458;2023-11-19T21:26:19;100059.97;;;12.45;100.00
49723;BME280;43484;43.608;1.458;2023-11-19T21:28:45;100061.66;;;12.44;100.00
49723;BME280;43484;43.608;1.458;2023-11-19T21:31:12;100059.72;;;12.36;100.00
49723;BME280;43484;43.608;1.458;2023-11-19T21:33:43;100058.72;;;12.31;100.00
49723;BME280;43484;43.608;1.458;2023-11-19T21:36:11;100065.47;;;12.27;100.00
49723;BME280;43484;43.608;1.458;2023-11-19T21:38:37;100056.84;;;12.24;100.00
49723;BME280;43484;43.608;1.458;2023-11-19T21:41:04;100055.03;;;12.20;100.00
49723;BME280;43484;43.608;1.458;2023-11-19T21:43:31;100055.00;;;12.18;100.00
49723;BME280;43484;43.608;1.458;2023-11-19T21:45:57;100049.84;;;12.18;100.00
49723;BME280;43484;43.608;1.458;2023-11-19T21:48:24;100049.75;;;12.14;100.00
49723;BME280;43484;43.608;1.458;2023-11-19T21:50:51;100042.84;;;12.13;100.00
49723;BME280;43484;43.608;1.458;2023-11-19T21:53:18;100046.19;;;12.09;100.00
49723;BME280;43484;43.608;1.458;2023-11-19T21:55:45;100042.03;;;12.14;100.00
49723;BME280;43484;43.608;1.458;2023-11-19T21:58:12;100033.59;;;12.19;100.00
49723;BME280;43484;43.608;1.458;2023-11-19T22:00:38;100024.97;;;12.17;100.00
49723;BME280;43484;43.608;1.458;2023-11-19T22:03:05;100027.63;;;12.19;100.00
49723;BME280;43484;43.608;1.458;2023-11-19T22:05:32;100027.50;;;12.16;100.00
49723;BME280;43484;43.608;1.458;2023-11-19T22:07:59;100026.56;;;12.12;100.00
49723;BME280;43484;43.608;1.458;2023-11-19T22:10:28;100025.69;;;12.10;100.00
49723;BME280;43484;43.608;1.458;2023-11-19T22:12:56;100021.41;;;12.12;100.00
49723;BME280;43484;43.608;1.458;2023-11-19T22:15:23;100016.22;;;12.09;100.00
49723;BME280;43484;43.608;1.458;2023-11-19T22:17:50;100024.66;;;12.04;100.00
49723;BME280;43484;43.608;1.458;2023-11-19T22:20:19;100024.69;;;12.05;100.00
49723;BME280;43484;43.608;1.458;2023-11-19T22:22:49;100012.66;;;12.04;100.00
49723;BME280;43484;43.608;1.458;2023-11-19T22:25:19;100008.31;;;12.02;100.00
49723;BME280;43484;43.608;1.458;2023-11-19T22:27:48;100008.31;;;12.02;100.00
49723;BME280;43484;43.608;1.458;2023-11-19T22:30:15;100009.94;;;11.98;100.00
49723;BME280;43484;43.608;1.458;2023-11-19T22:32:41;100004.00;;;12.01;100.00
49723;BME280;43484;43.608;1.458;2023-11-19T22:35:08;99998.91;;;12.02;100.00
49723;BME280;43484;43.608;1.458;2023-11-19T22:37:35;100003.19;;;12.02;100.00
49723;BME280;43484;43.608;1.458;2023-11-19T22:40:02;100005.69;;;11.99;100.00
49723;BME280;43484;43.608;1.458;2023-11-19T22:42:29;100000.38;;;11.93;100.00
49723;BME280;43484;43.608;1.458;2023-11-19T22:44:55;99995.31;;;11.96;100.00
49723;BME280;43484;43.608;1.458;2023-11-19T22:47:22;100008.88;;;11.90;100.00
49723;BME280;43484;43.608;1.458;2023-11-19T22:49:49;99999.34;;;11.86;100.00
49723;BME280;43484;43.608;1.458;2023-11-19T22:52:17;99998.47;;;11.86;100.00
49723;BME280;43484;43.608;1.458;2023-11-19T22:54:43;99997.50;;;11.82;100.00
49723;BME280;43484;43.608;1.458;2023-11-19T22:57:10;100002.59;;;11.81;100.00
49723;BME280;43484;43.608;1.458;2023-11-19T22:59:36;99993.28;;;11.84;100.00
49723;BME280;43484;43.608;1.458;2023-11-19T23:02:03;99988.94;;;11.80;100.00
49723;BME280;43484;43.608;1.458;2023-11-19T23:04:32;99991.31;;;11.74;100.00
49723;BME280;43484;43.608;1.458;2023-11-19T23:06:59;99990.47;;;11.74;100.00
49723;BME280;43484;43.608;1.458;2023-11-19T23:09:27;99985.44;;;11.78;100.00
49723;BME280;43484;43.608;1.458;2023-11-19T23:11:54;99981.19;;;11.79;100.00
49723;BME280;43484;43.608;1.458;2023-11-19T23:14:20;99986.22;;;11.76;100.00
49723;BME280;43484;43.608;1.458;2023-11-19T23:16:49;99979.44;;;11.78;100.00
49723;BME280;43484;43.608;1.458;2023-11-19T23:19:16;99977.63;;;11.74;100.00
49723;BME280;43484;43.608;1.458;2023-11-19T23:21:42;99971.66;;;11.75;100.00
49723;BME280;43484;43.608;1.458;2023-11-19T23:24:11;99974.38;;;11.81;100.00
49723;BME280;43484;43.608;1.458;2023-11-19T23:26:37;99967.44;;;11.77;100.00
49723;BME280;43484;43.608;1.458;2023-11-19T23:29:05;99970.63;;;11.68;100.00
49723;BME280;43484;43.608;1.458;2023-11-19T23:31:41;99969.75;;;11.68;100.00
49723;BME280;43484;43.608;1.458;2023-11-19T23:34:08;99967.00;;;11.62;100.00
49723;BME280;43484;43.608;1.458;2023-11-19T23:36:34;99970.25;;;11.56;100.00
49723;BME280;43484;43.608;1.458;2023-11-19T23:39:02;99969.25;;;11.51;100.00
49723;BME280;43484;43.608;1.458;2023-11-19T23:41:28;99970.00;;;11.47;100.00
49723;BME280;43484;43.608;1.458;2023-11-19T23:43:58;99968.25;;;11.46;100.00
49723;BME280;43484;43.608;1.458;2023-11-19T23:46:25;99967.31;;;11.43;100.00
49723;BME280;43484;43.608;1.458;2023-11-19T23:48:52;99968.84;;;11.36;100.00
49723;BME280;43484;43.608;1.458;2023-11-19T23:51:24;99966.44;;;11.42;100.00
49723;BME280;43484;43.608;1.458;2023-11-19T23:53:51;99962.81;;;11.35;100.00
49723;BME280;43484;43.608;1.458;2023-11-19T23:56:19;99966.25;;;11.36;100.00
49723;BME280;43484;43.608;1.458;2023-11-19T23:58:46;99962.75;;;11.32;100.00
